createdAt,value
2023-02-23T00:01:18.120Z,52.66
2023-02-23T00:03:20.098Z,52.96
2023-02-23T00:05:23.183Z,52.77
2023-02-23T00:07:27.085Z,53.10
2023-02-23T00:09:35.540Z,52.80
2023-02-23T00:11:39.043Z,52.86
2023-02-23T00:13:42.094Z,52.88
2023-02-23T00:15:43.567Z,52.86
2023-02-23T00:17:47.735Z,52.89
2023-02-23T00:19:49.488Z,52.75
2023-02-23T00:21:52.117Z,52.87
2023-02-23T00:23:57.471Z,53.13
2023-02-23T00:25:59.540Z,52.81
2023-02-23T00:28:01.067Z,52.75
2023-02-23T00:30:02.687Z,52.53
2023-02-23T00:32:04.443Z,52.84
2023-02-23T00:34:07.595Z,52.95
2023-02-23T00:36:11.840Z,52.88
2023-02-23T00:38:13.995Z,52.79
2023-02-23T00:40:18.166Z,52.84
2023-02-23T00:42:20.012Z,52.82
2023-02-23T00:44:23.697Z,53.05
2023-02-23T00:46:27.950Z,52.88
2023-02-23T00:48:29.495Z,52.77
2023-02-23T00:50:32.514Z,52.75
2023-02-23T00:52:34.121Z,53.00
2023-02-23T00:54:37.823Z,52.69
2023-02-23T00:56:42.328Z,52.78
2023-02-23T00:58:43.896Z,53.06
2023-02-23T01:00:45.451Z,53.09
2023-02-23T01:02:48.608Z,53.09
2023-02-23T01:04:50.416Z,52.89
2023-02-23T01:06:51.921Z,52.80
2023-02-23T01:08:56.761Z,53.07
2023-02-23T01:10:58.612Z,53.04
2023-02-23T01:13:00.040Z,53.14
2023-02-23T01:15:03.580Z,53.08
2023-02-23T01:17:07.512Z,52.98
2023-02-23T01:19:11.527Z,53.07
2023-02-23T01:21:19.052Z,53.05
2023-02-23T01:23:21.914Z,53.26
2023-02-23T01:25:24.516Z,53.18
2023-02-23T01:27:26.627Z,53.38
2023-02-23T01:29:29.528Z,53.04
2023-02-23T01:31:31.511Z,53.15
2023-02-23T01:33:33.000Z,53.11
2023-02-23T01:35:36.238Z,52.94
2023-02-23T01:37:42.787Z,53.01
2023-02-23T01:39:45.465Z,53.09
2023-02-23T01:41:47.113Z,53.18
2023-02-23T01:44:06.370Z,53.57
2023-02-23T01:46:10.471Z,53.01
2023-02-23T01:48:30.434Z,53.35
2023-02-23T01:50:39.169Z,53.47
2023-02-23T01:52:41.079Z,53.34
2023-02-23T01:54:54.926Z,53.45
2023-02-23T01:57:00.516Z,53.26
2023-02-23T01:59:07.219Z,53.25
2023-02-23T02:01:11.480Z,53.42
2023-02-23T02:03:22.657Z,53.59
2023-02-23T02:05:25.808Z,53.60
2023-02-23T02:07:35.572Z,53.73
2023-02-23T02:09:39.876Z,53.59
2023-02-23T02:11:44.579Z,53.63
2023-02-23T02:13:46.445Z,53.45
2023-02-23T02:16:05.387Z,53.71
2023-02-23T02:18:23.622Z,53.73
2023-02-23T02:20:53.387Z,53.63
2023-02-23T02:23:36.758Z,53.74
2023-02-23T02:25:58.176Z,53.64
2023-02-23T02:28:08.849Z,53.71
2023-02-23T02:30:27.215Z,53.73
2023-02-23T02:32:58.089Z,53.81
2023-02-23T02:35:27.105Z,53.84
2023-02-23T02:37:43.433Z,53.82
2023-02-23T02:40:16.214Z,53.97
2023-02-23T02:42:34.515Z,53.70
2023-02-23T02:44:54.619Z,53.95
2023-02-23T02:47:04.750Z,53.87
2023-02-23T02:49:30.042Z,53.84
2023-02-23T02:51:42.998Z,53.87
2023-02-23T02:53:53.049Z,53.96
2023-02-23T02:56:00.346Z,54.00
2023-02-23T02:58:03.450Z,53.87
2023-02-23T03:00:24.321Z,53.98
2023-02-23T03:02:44.788Z,53.95
2023-02-23T03:05:05.185Z,53.88
2023-02-23T03:08:15.526Z,54.29
2023-02-23T03:10:38.732Z,54.06
2023-02-23T03:13:26.382Z,53.90
2023-02-23T03:15:52.379Z,54.13
2023-02-23T03:18:43.819Z,54.19
2023-02-23T03:21:13.042Z,54.05
2023-02-23T03:23:42.904Z,53.92
2023-02-23T03:26:27.363Z,54.03
2023-02-23T03:28:56.346Z,53.90
2023-02-23T03:31:57.105Z,54.05
2023-02-23T03:34:33.447Z,54.16
2023-02-23T03:36:58.359Z,54.01
2023-02-23T03:39:40.441Z,54.10
2023-02-23T03:42:03.225Z,54.01
2023-02-23T03:44:32.889Z,54.01
2023-02-23T03:46:54.906Z,54.38
2023-02-23T03:49:20.347Z,54.01
2023-02-23T03:51:44.316Z,54.25
2023-02-23T03:54:14.405Z,53.99
2023-02-23T03:56:38.257Z,54.12
2023-02-23T03:59:03.396Z,54.02
2023-02-23T04:01:26.559Z,54.03
2023-02-23T04:03:50.673Z,54.20
2023-02-23T04:06:14.595Z,53.92
2023-02-23T04:08:38.552Z,54.02
2023-02-23T04:11:07.332Z,54.01
2023-02-23T04:13:20.014Z,54.09
2023-02-23T04:15:38.073Z,53.94
2023-02-23T04:17:40.259Z,54.21
2023-02-23T04:19:53.016Z,53.82
2023-02-23T04:21:58.381Z,53.85
2023-02-23T04:23:59.964Z,53.53
2023-02-23T04:26:01.587Z,53.61
2023-02-23T04:28:03.543Z,53.85
2023-02-23T04:30:05.811Z,53.84
2023-02-23T04:32:08.157Z,53.76
2023-02-23T04:34:09.972Z,53.69
2023-02-23T04:36:11.731Z,53.61
2023-02-23T04:38:13.236Z,53.68
2023-02-23T04:40:15.141Z,53.59
2023-02-23T04:42:17.710Z,53.68
2023-02-23T04:44:19.393Z,53.75
2023-02-23T04:46:21.140Z,53.68
2023-02-23T04:48:25.099Z,53.77
2023-02-23T04:50:26.971Z,53.54
2023-02-23T04:52:28.638Z,53.84
2023-02-23T04:54:30.112Z,53.88
2023-02-23T04:56:31.844Z,53.98
2023-02-23T04:58:33.354Z,53.83
2023-02-23T05:00:34.925Z,54.04
2023-02-23T05:02:42.415Z,53.90
2023-02-23T05:04:44.570Z,54.00
2023-02-23T05:06:46.186Z,54.07
2023-02-23T05:08:47.792Z,54.06
2023-02-23T05:10:49.434Z,53.85
2023-02-23T05:12:51.370Z,54.08
2023-02-23T05:14:52.852Z,54.00
2023-02-23T05:16:54.600Z,53.73
2023-02-23T05:18:56.848Z,53.93
2023-02-23T05:21:07.200Z,54.07
2023-02-23T05:23:09.086Z,54.07
2023-02-23T05:25:11.801Z,54.21
2023-02-23T05:27:17.053Z,53.81
2023-02-23T05:29:19.234Z,54.25
2023-02-23T05:31:23.359Z,54.05
2023-02-23T05:33:25.138Z,54.07
2023-02-23T05:35:26.759Z,54.54
2023-02-23T05:37:28.479Z,53.93
2023-02-23T05:39:30.499Z,54.36
2023-02-23T05:41:32.154Z,54.22
2023-02-23T05:43:33.780Z,54.34
2023-02-23T05:45:40.403Z,54.64
2023-02-23T05:47:44.837Z,54.62
2023-02-23T05:49:46.673Z,54.57
2023-02-23T05:51:48.848Z,54.65
2023-02-23T05:53:50.566Z,54.52
2023-02-23T05:55:52.263Z,54.65
2023-02-23T05:57:53.856Z,54.67
2023-02-23T05:59:55.611Z,54.60
2023-02-23T06:01:57.299Z,54.58
2023-02-23T06:03:58.959Z,54.55
2023-02-23T06:06:00.718Z,54.54
2023-02-23T06:08:02.647Z,54.43
2023-02-23T06:10:05.141Z,54.62
2023-02-23T06:12:07.099Z,54.52
2023-02-23T06:14:08.658Z,54.79
2023-02-23T06:16:10.411Z,54.85
2023-02-23T06:18:12.369Z,54.87
2023-02-23T06:20:14.655Z,54.51
2023-02-23T06:22:17.870Z,54.52
2023-02-23T06:24:19.788Z,54.87
2023-02-23T06:26:21.427Z,54.63
2023-02-23T06:28:23.396Z,54.66
2023-02-23T06:30:25.001Z,54.98
2023-02-23T06:32:27.088Z,54.66
2023-02-23T06:34:30.278Z,54.72
2023-02-23T06:36:34.220Z,55.17
2023-02-23T06:38:36.862Z,54.65
2023-02-23T06:40:39.743Z,54.81
2023-02-23T06:42:41.291Z,55.07
2023-02-23T06:44:42.866Z,55.11
2023-02-23T06:46:44.703Z,55.23
2023-02-23T06:48:46.885Z,55.05
2023-02-23T06:50:48.686Z,55.09
2023-02-23T06:52:52.328Z,55.36
2023-02-23T06:54:53.828Z,55.10
2023-02-23T06:56:56.752Z,54.63
2023-02-23T06:58:58.433Z,55.08
2023-02-23T07:01:00.196Z,54.96
2023-02-23T07:03:01.718Z,55.20
2023-02-23T07:05:04.443Z,55.53
2023-02-23T07:07:06.151Z,55.28
2023-02-23T07:09:07.707Z,55.33
2023-02-23T07:11:11.559Z,55.23
2023-02-23T07:13:13.038Z,55.32
2023-02-23T07:15:18.376Z,55.28
2023-02-23T07:17:22.122Z,55.28
2023-02-23T07:19:23.709Z,55.11
2023-02-23T07:21:25.366Z,55.42
2023-02-23T07:23:26.953Z,55.29
2023-02-23T07:25:31.533Z,55.53
2023-02-23T07:27:33.439Z,55.31
2023-02-23T07:29:34.956Z,54.87
2023-02-23T07:31:37.926Z,55.29
2023-02-23T07:33:39.729Z,55.48
2023-02-23T07:35:44.137Z,55.56
2023-02-23T07:37:45.820Z,55.64
2023-02-23T07:39:47.846Z,55.38
2023-02-23T07:41:49.440Z,55.62
2023-02-23T07:43:53.166Z,55.77
2023-02-23T07:45:54.757Z,55.59
2023-02-23T07:47:56.393Z,55.61
2023-02-23T07:50:08.174Z,55.73
2023-02-23T07:52:10.436Z,55.39
2023-02-23T07:54:11.957Z,55.66
2023-02-23T07:56:13.700Z,55.33
2023-02-23T07:58:15.539Z,55.63
2023-02-23T08:00:17.746Z,55.66
2023-02-23T08:02:19.411Z,55.71
2023-02-23T08:04:21.025Z,55.29
2023-02-23T08:06:22.643Z,55.58
2023-02-23T08:08:24.444Z,55.67
2023-02-23T08:10:26.414Z,55.71
2023-02-23T08:12:28.105Z,56.13
2023-02-23T08:14:29.752Z,55.82
2023-02-23T08:16:33.188Z,55.90
2023-02-23T08:18:35.346Z,55.63
2023-02-23T08:20:36.813Z,55.84
2023-02-23T08:22:48.961Z,55.94
2023-02-23T08:24:51.130Z,55.69
2023-02-23T08:26:53.355Z,55.89
2023-02-23T08:28:55.756Z,55.85
2023-02-23T08:30:59.559Z,56.12
2023-02-23T08:33:01.639Z,55.98
2023-02-23T08:35:03.485Z,55.91
2023-02-23T08:37:05.242Z,56.06
2023-02-23T08:39:07.486Z,55.88
2023-02-23T08:41:09.230Z,55.78
2023-02-23T08:43:10.963Z,56.02
2023-02-23T08:45:12.669Z,56.03
2023-02-23T08:47:16.410Z,56.03
2023-02-23T08:49:18.270Z,55.66
2023-02-23T08:51:20.201Z,56.15
2023-02-23T08:53:23.050Z,55.91
2023-02-23T08:55:24.664Z,55.97
2023-02-23T08:57:27.077Z,56.11
2023-02-23T08:59:28.604Z,55.92
2023-02-23T09:01:30.258Z,56.02
2023-02-23T09:03:36.478Z,55.98
2023-02-23T09:05:38.865Z,55.69
2023-02-23T09:07:45.135Z,55.69
2023-02-23T09:09:46.858Z,55.84
2023-02-23T09:11:48.536Z,55.66
2023-02-23T09:13:50.643Z,55.57
2023-02-23T09:15:52.128Z,55.70
2023-02-23T09:17:54.529Z,55.75
2023-02-23T09:19:56.168Z,55.62
2023-02-23T09:21:57.764Z,55.63
2023-02-23T09:23:59.878Z,55.88
2023-02-23T09:26:06.022Z,55.82
2023-02-23T09:28:07.589Z,55.73
2023-02-23T09:30:09.841Z,55.51
2023-02-23T09:32:11.734Z,55.83
2023-02-23T09:34:13.405Z,55.70
2023-02-23T09:36:18.499Z,55.86
2023-02-23T09:38:20.057Z,55.72
2023-02-23T09:40:31.612Z,55.87
2023-02-23T09:43:02.783Z,55.67
2023-02-23T09:45:18.839Z,55.87
2023-02-23T09:47:32.830Z,55.92
2023-02-23T09:49:44.477Z,55.72
2023-02-23T09:51:53.934Z,55.82
2023-02-23T09:54:02.334Z,55.79
2023-02-23T09:56:35.415Z,55.79
2023-02-23T09:58:39.891Z,55.66
2023-02-23T10:00:49.448Z,55.79
2023-02-23T10:03:04.225Z,55.86
2023-02-23T10:05:52.152Z,55.86
2023-02-23T10:08:03.145Z,55.87
2023-02-23T10:10:28.591Z,56.01
2023-02-23T10:12:52.313Z,55.83
2023-02-23T10:15:10.484Z,55.91
2023-02-23T10:17:33.974Z,55.93
2023-02-23T10:19:53.442Z,55.94
2023-02-23T10:21:59.769Z,55.97
2023-02-23T10:24:17.905Z,55.91
2023-02-23T10:26:24.981Z,56.45
2023-02-23T10:28:28.505Z,56.07
2023-02-23T10:30:33.639Z,56.18
2023-02-23T10:32:50.811Z,56.31
2023-02-23T10:34:57.843Z,56.20
2023-02-23T10:37:01.839Z,56.10
2023-02-23T10:39:08.133Z,56.49
2023-02-23T10:41:14.379Z,56.44
2023-02-23T10:43:16.499Z,56.40
2023-02-23T10:45:24.569Z,56.44
2023-02-23T10:47:37.594Z,56.45
2023-02-23T10:49:43.635Z,56.51
2023-02-23T10:51:45.591Z,56.40
2023-02-23T10:53:47.482Z,56.56
2023-02-23T10:56:02.794Z,56.86
2023-02-23T10:58:19.058Z,56.55
2023-02-23T11:00:21.522Z,56.46
2023-02-23T11:02:27.645Z,56.44
2023-02-23T11:04:35.237Z,56.63
2023-02-23T11:06:43.031Z,56.57
2023-02-23T11:08:44.598Z,56.42
2023-02-23T11:11:00.039Z,56.72
2023-02-23T11:13:04.559Z,56.59
2023-02-23T11:15:48.583Z,56.53
2023-02-23T11:17:56.780Z,56.44
2023-02-23T11:20:02.493Z,56.41
2023-02-23T11:22:06.224Z,56.46
2023-02-23T11:24:10.986Z,56.62
2023-02-23T11:26:32.877Z,56.72
2023-02-23T11:28:37.690Z,56.49
2023-02-23T11:30:43.900Z,56.57
2023-02-23T11:32:52.321Z,56.59
2023-02-23T11:35:21.313Z,56.77
2023-02-23T11:37:23.394Z,56.50
2023-02-23T11:39:25.183Z,56.67
2023-02-23T11:41:30.489Z,56.84
2023-02-23T11:43:32.244Z,56.43
2023-02-23T11:45:55.477Z,56.58
2023-02-23T11:48:02.146Z,56.55
2023-02-23T11:50:11.226Z,56.65
2023-02-23T11:52:16.873Z,56.62
2023-02-23T11:54:59.352Z,57.04
2023-02-23T11:57:02.976Z,56.96
2023-02-23T11:59:13.776Z,57.15
2023-02-23T12:01:20.949Z,57.00
2023-02-23T12:03:25.947Z,56.94
2023-02-23T12:05:31.791Z,56.72
2023-02-23T12:07:41.871Z,57.03
2023-02-23T12:09:49.420Z,57.18
2023-02-23T12:12:06.725Z,56.90
2023-02-23T12:14:20.801Z,56.67
2023-02-23T12:16:34.807Z,56.69
2023-02-23T12:19:00.460Z,57.05
2023-02-23T12:21:15.361Z,57.05
2023-02-23T12:23:22.515Z,56.91
2023-02-23T12:25:40.733Z,56.92
2023-02-23T12:27:57.195Z,57.00
2023-02-23T12:30:08.954Z,56.67
2023-02-23T12:32:39.789Z,56.50
2023-02-23T12:34:52.866Z,56.52
2023-02-23T12:37:08.621Z,56.46
2023-02-23T12:39:32.035Z,56.41
2023-02-23T12:41:42.099Z,56.27
2023-02-23T12:43:53.009Z,56.41
2023-02-23T12:46:10.028Z,56.49
2023-02-23T12:48:28.096Z,56.25
2023-02-23T12:50:38.395Z,56.19
2023-02-23T12:52:51.123Z,56.40
2023-02-23T12:54:53.560Z,56.26
2023-02-23T12:56:57.976Z,56.26
2023-02-23T12:59:13.364Z,56.44
2023-02-23T13:01:41.547Z,56.42
2023-02-23T13:03:49.428Z,56.49
2023-02-23T13:06:12.521Z,56.48
2023-02-23T13:08:28.886Z,56.54
2023-02-23T13:10:49.029Z,56.40
2023-02-23T13:13:04.984Z,56.27
2023-02-23T13:15:56.134Z,56.31
2023-02-23T13:18:25.906Z,56.42
2023-02-23T13:20:49.246Z,56.54
2023-02-23T13:23:16.553Z,56.29
2023-02-23T13:25:43.571Z,56.41
2023-02-23T13:27:51.750Z,56.31
2023-02-23T13:29:55.280Z,56.27
2023-02-23T13:31:57.958Z,56.30
2023-02-23T13:34:02.217Z,56.57
2023-02-23T13:36:04.882Z,56.40
2023-02-23T13:38:26.607Z,56.41
2023-02-23T13:40:35.387Z,56.64
2023-02-23T13:42:48.812Z,56.80
2023-02-23T13:45:25.451Z,57.02
2023-02-23T13:47:33.891Z,56.79
2023-02-23T13:49:49.393Z,57.02
2023-02-23T13:51:59.476Z,57.15
2023-02-23T13:54:06.555Z,56.93
2023-02-23T13:56:17.358Z,57.37
2023-02-23T13:58:29.726Z,57.21
2023-02-23T14:00:34.399Z,57.08
2023-02-23T14:02:40.840Z,56.76
2023-02-23T14:04:43.031Z,57.00
2023-02-23T14:06:56.413Z,57.14
2023-02-23T14:09:06.758Z,57.16
2023-02-23T14:11:08.585Z,56.99
2023-02-23T14:13:12.934Z,57.23
2023-02-23T14:15:37.918Z,57.35
2023-02-23T14:17:40.668Z,57.03
2023-02-23T14:20:13.295Z,57.36
2023-02-23T14:22:24.256Z,57.29
2023-02-23T14:24:27.708Z,56.96
2023-02-23T14:26:29.315Z,57.06
2023-02-23T14:28:32.512Z,57.14
2023-02-23T14:31:08.126Z,57.22
2023-02-23T14:33:34.132Z,57.21
2023-02-23T14:35:44.082Z,57.16
2023-02-23T14:37:56.251Z,57.12
2023-02-23T14:40:13.094Z,57.11
2023-02-23T14:42:26.471Z,57.09
2023-02-23T14:44:31.567Z,57.09
2023-02-23T14:46:35.999Z,57.24
2023-02-23T14:48:41.663Z,57.27
2023-02-23T14:50:43.482Z,57.56
2023-02-23T14:52:46.043Z,57.45
2023-02-23T14:54:48.221Z,57.28
2023-02-23T14:56:56.636Z,57.34
2023-02-23T14:59:02.061Z,57.34
2023-02-23T15:01:03.589Z,57.37
2023-02-23T15:03:12.695Z,57.17
2023-02-23T15:05:16.514Z,57.52
2023-02-23T15:07:38.460Z,57.38
2023-02-23T15:09:42.743Z,57.20
2023-02-23T15:11:48.645Z,57.38
2023-02-23T15:13:52.216Z,57.22
2023-02-23T15:15:54.955Z,57.21
2023-02-23T15:18:00.888Z,57.03
2023-02-23T15:20:16.252Z,57.02
2023-02-23T15:22:31.523Z,57.00
2023-02-23T15:24:44.598Z,57.35
2023-02-23T15:26:46.303Z,56.88
2023-02-23T15:28:48.112Z,56.85
2023-02-23T15:30:51.723Z,56.66
2023-02-23T15:33:29.221Z,56.91
2023-02-23T15:35:37.923Z,56.65
2023-02-23T15:39:57.028Z,57.06
2023-02-23T15:41:58.760Z,56.71
2023-02-23T15:44:13.187Z,56.96
2023-02-23T15:46:25.500Z,57.20
2023-02-23T15:48:37.116Z,56.86
2023-02-23T15:50:44.568Z,57.10
2023-02-23T15:52:50.272Z,56.95
2023-02-23T15:55:00.202Z,56.90
2023-02-23T15:57:27.423Z,57.08
2023-02-23T15:59:34.630Z,56.86
2023-02-23T16:01:42.818Z,57.12
2023-02-23T16:04:09.420Z,57.03
2023-02-23T16:06:32.641Z,56.81
2023-02-23T16:08:37.742Z,56.97
2023-02-23T16:10:47.181Z,56.99
2023-02-23T16:12:54.236Z,57.18
2023-02-23T16:14:59.647Z,57.06
2023-02-23T16:17:11.165Z,57.03
2023-02-23T16:19:15.136Z,57.07
2023-02-23T16:21:21.569Z,56.93
2023-02-23T16:23:45.650Z,57.34
2023-02-23T16:25:52.821Z,56.91
2023-02-23T16:28:02.906Z,56.89
2023-02-23T16:30:18.737Z,56.94
2023-02-23T16:32:23.656Z,56.83
2023-02-23T16:34:28.220Z,56.84
2023-02-23T16:36:41.059Z,56.98
2023-02-23T16:38:49.144Z,56.96
2023-02-23T16:40:50.905Z,56.99
2023-02-23T16:42:54.026Z,57.08
2023-02-23T16:44:57.680Z,57.16
2023-02-23T16:47:01.860Z,57.05
2023-02-23T16:49:10.414Z,57.03
2023-02-23T16:51:15.526Z,56.86
2023-02-23T16:53:17.570Z,56.88
2023-02-23T16:55:27.942Z,57.15
2023-02-23T16:57:37.347Z,56.94
2023-02-23T16:59:38.899Z,57.03
2023-02-23T17:01:40.387Z,56.83
2023-02-23T17:03:52.485Z,56.64
2023-02-23T17:05:55.136Z,56.79
2023-02-23T17:07:58.534Z,56.90
2023-02-23T17:10:00.178Z,57.03
2023-02-23T17:12:01.857Z,56.78
2023-02-23T17:14:03.695Z,57.16
2023-02-23T17:16:10.456Z,56.92
2023-02-23T17:18:11.990Z,56.96
2023-02-23T17:20:21.366Z,56.93
2023-02-23T17:22:23.054Z,56.81
2023-02-23T17:24:26.314Z,56.83
2023-02-23T17:26:28.380Z,56.84
2023-02-23T17:28:30.033Z,56.80
2023-02-23T17:30:31.924Z,56.89
2023-02-23T17:32:36.444Z,56.98
2023-02-23T17:34:38.540Z,57.16
2023-02-23T17:36:40.132Z,57.04
2023-02-23T17:38:44.514Z,56.83
2023-02-23T17:40:46.105Z,56.68
2023-02-23T17:42:47.661Z,57.02
2023-02-23T17:44:49.313Z,57.01
2023-02-23T17:46:51.006Z,56.82
2023-02-23T17:48:55.095Z,57.06
2023-02-23T17:51:03.825Z,56.83
2023-02-23T17:53:05.450Z,56.86
2023-02-23T17:55:09.447Z,56.85
2023-02-23T17:57:11.163Z,56.99
2023-02-23T17:59:12.876Z,56.81
2023-02-23T18:01:14.434Z,56.80
2023-02-23T18:03:16.481Z,56.73
2023-02-23T18:05:18.319Z,56.89
2023-02-23T18:07:21.646Z,57.08
2023-02-23T18:09:23.330Z,57.00
2023-02-23T18:11:25.232Z,56.97
2023-02-23T18:13:28.936Z,56.96
2023-02-23T18:15:33.342Z,57.14
2023-02-23T18:17:37.138Z,56.90
2023-02-23T18:19:39.188Z,56.98
2023-02-23T18:21:43.472Z,56.77
2023-02-23T18:23:45.316Z,56.89
2023-02-23T18:25:48.071Z,56.92
2023-02-23T18:27:51.131Z,56.89
2023-02-23T18:29:52.627Z,56.91
2023-02-23T18:31:55.436Z,56.91
2023-02-23T18:34:00.242Z,57.27
2023-02-23T18:36:05.098Z,57.26
2023-02-23T18:38:12.486Z,57.05
2023-02-23T18:40:21.429Z,56.99
2023-02-23T18:42:23.166Z,57.36
2023-02-23T18:44:25.456Z,57.22
2023-02-23T18:46:27.674Z,57.06
2023-02-23T18:48:29.137Z,57.23
2023-02-23T18:50:30.900Z,57.14
2023-02-23T18:52:33.509Z,57.28
2023-02-23T18:54:36.455Z,57.19
2023-02-23T18:56:38.128Z,57.17
2023-02-23T18:58:40.400Z,57.12
2023-02-23T19:00:42.582Z,57.30
2023-02-23T19:02:46.387Z,57.13
2023-02-23T19:04:48.177Z,57.17
2023-02-23T19:06:49.734Z,57.13
2023-02-23T19:08:54.343Z,57.32
2023-02-23T19:10:57.100Z,57.17
2023-02-23T19:12:58.609Z,57.25
2023-02-23T19:15:00.234Z,57.40
2023-02-23T19:17:03.050Z,57.20
2023-02-23T19:19:06.760Z,57.40
2023-02-23T19:21:11.294Z,57.39
2023-02-23T19:23:13.426Z,57.37
2023-02-23T19:25:15.305Z,57.38
2023-02-23T19:27:17.941Z,57.33
2023-02-23T19:29:19.552Z,57.45
2023-02-23T19:31:24.248Z,57.33
2023-02-23T19:33:26.076Z,57.50
2023-02-23T19:35:27.617Z,57.46
2023-02-23T19:37:29.230Z,57.14
2023-02-23T19:39:30.849Z,57.40
2023-02-23T19:41:33.700Z,57.54
2023-02-23T19:43:35.121Z,57.45
2023-02-23T19:45:36.838Z,57.50
2023-02-23T19:47:38.611Z,57.63
2023-02-23T19:49:40.190Z,57.71
2023-02-23T19:51:42.052Z,57.47
2023-02-23T19:53:43.537Z,57.62
2023-02-23T19:55:45.306Z,57.61
2023-02-23T19:57:47.112Z,57.53
2023-02-23T19:59:48.600Z,57.83
2023-02-23T20:01:51.439Z,57.79
2023-02-23T20:04:01.625Z,57.72
2023-02-23T20:06:05.975Z,57.64
2023-02-23T20:08:10.545Z,57.60
2023-02-23T20:10:16.512Z,57.68
2023-02-23T20:12:18.196Z,57.61
2023-02-23T20:14:19.606Z,57.69
2023-02-23T20:16:21.605Z,57.55
2023-02-23T20:18:24.905Z,57.55
2023-02-23T20:20:28.753Z,57.49
2023-02-23T20:22:33.342Z,57.45
2023-02-23T20:24:34.761Z,57.49
2023-02-23T20:26:37.229Z,57.54
2023-02-23T20:28:40.133Z,57.64
2023-02-23T20:30:46.805Z,57.66
2023-02-23T20:32:49.071Z,57.64
2023-02-23T20:34:51.767Z,57.92
2023-02-23T20:36:55.078Z,57.54
2023-02-23T20:38:56.703Z,57.81
2023-02-23T20:40:58.817Z,57.67
2023-02-23T20:43:00.346Z,57.61
2023-02-23T20:45:01.963Z,57.63
2023-02-23T20:47:09.755Z,57.72
2023-02-23T20:49:18.290Z,57.78
2023-02-23T20:51:20.397Z,57.55
2023-02-23T20:53:24.452Z,57.70
2023-02-23T20:55:27.213Z,57.73
2023-02-23T20:57:29.665Z,57.72
2023-02-23T20:59:32.220Z,57.78
2023-02-23T21:01:34.129Z,57.59
2023-02-23T21:03:35.933Z,57.64
2023-02-23T21:05:41.922Z,57.72
2023-02-23T21:07:45.863Z,57.62
2023-02-23T21:09:47.384Z,57.89
2023-02-23T21:11:48.877Z,57.98
2023-02-23T21:13:52.062Z,57.68
2023-02-23T21:15:59.690Z,57.92
2023-02-23T21:18:04.306Z,57.88
2023-02-23T21:20:06.845Z,57.81
2023-02-23T21:22:09.296Z,57.97
2023-02-23T21:24:12.022Z,57.94
2023-02-23T21:26:13.629Z,57.92
2023-02-23T21:28:15.663Z,58.05
2023-02-23T21:30:19.686Z,58.04
2023-02-23T21:32:22.427Z,57.83
2023-02-23T21:34:24.010Z,58.20
2023-02-23T21:36:28.370Z,57.99
2023-02-23T21:38:29.946Z,58.05
2023-02-23T21:40:31.698Z,57.97
2023-02-23T21:42:33.228Z,57.87
2023-02-23T21:44:34.928Z,58.27
2023-02-23T21:46:36.837Z,57.89
2023-02-23T21:48:38.550Z,58.01
2023-02-23T21:50:40.138Z,57.90
2023-02-23T21:52:43.702Z,58.09
2023-02-23T21:54:49.960Z,58.21
2023-02-23T21:56:51.761Z,58.37
2023-02-23T21:58:55.063Z,58.08
2023-02-23T22:00:56.836Z,58.20
2023-02-23T22:02:58.587Z,58.33
2023-02-23T22:05:00.156Z,58.21
2023-02-23T22:07:02.212Z,58.28
2023-02-23T22:09:06.536Z,58.39
2023-02-23T22:11:10.042Z,58.43
2023-02-23T22:13:11.653Z,58.32
2023-02-23T22:15:15.730Z,58.40
2023-02-23T22:17:19.283Z,58.25
2023-02-23T22:19:20.934Z,58.29
2023-02-23T22:21:23.549Z,58.40
2023-02-23T22:23:27.730Z,58.30
2023-02-23T22:25:29.680Z,58.30
2023-02-23T22:27:31.744Z,58.36
2023-02-23T22:29:35.052Z,58.24
2023-02-23T22:31:38.161Z,58.49
2023-02-23T22:33:44.767Z,58.34
2023-02-23T22:35:46.954Z,58.44
2023-02-23T22:37:48.761Z,58.38
2023-02-23T22:39:50.324Z,58.54
2023-02-23T22:41:51.830Z,58.25
2023-02-23T22:43:53.442Z,58.34
2023-02-23T22:45:55.713Z,58.42
2023-02-23T22:48:01.439Z,58.51
2023-02-23T22:50:06.146Z,58.38
2023-02-23T22:52:07.651Z,58.23
2023-02-23T22:54:10.002Z,58.37
2023-02-23T22:56:11.714Z,58.50
2023-02-23T22:58:15.108Z,58.39
2023-02-23T23:00:18.767Z,58.32
2023-02-23T23:02:21.922Z,58.36
2023-02-23T23:04:24.287Z,58.39
2023-02-23T23:06:27.078Z,58.39
2023-02-23T23:08:37.001Z,58.38
2023-02-23T23:10:41.142Z,58.76
2023-02-23T23:12:42.614Z,58.44
2023-02-23T23:14:45.454Z,58.43
2023-02-23T23:16:53.193Z,58.45
2023-02-23T23:18:56.800Z,58.69
2023-02-23T23:21:02.376Z,58.64
2023-02-23T23:23:07.113Z,58.67
2023-02-23T23:25:14.627Z,58.44
2023-02-23T23:27:16.529Z,58.48
2023-02-23T23:29:18.073Z,58.40
2023-02-23T23:31:23.611Z,58.63
2023-02-23T23:33:26.894Z,58.56
2023-02-23T23:35:28.445Z,58.71
2023-02-23T23:37:30.168Z,58.65
2023-02-23T23:39:31.686Z,58.55
2023-02-23T23:41:35.425Z,58.57
2023-02-23T23:43:37.559Z,58.65
2023-02-23T23:45:40.559Z,58.71
2023-02-23T23:47:43.859Z,58.71
2023-02-23T23:49:45.470Z,58.64
2023-02-23T23:51:50.441Z,58.57
2023-02-23T23:53:52.340Z,58.60
2023-02-23T23:55:53.890Z,58.46
2023-02-23T23:57:55.341Z,58.60
2023-02-23T23:59:56.805Z,58.79
